Time;durP1;ratioP1;P1;durP2;ratioP2;P2;SDS_P1;SDS_P2;PMS_P1;PMS_P2;Temp;Humidity;BMP_temperature;BMP_pressure;BME280_temperature;BME280_humidity;BME280_pressure;Samples;Min_cycle;Max_cycle;Signal;HPM_P1;HPM_P2
2023/10/30 00:01:02;;;;;;;3.80;1.60;;;;;;;13.91;72.09;95847.11;108735;1268;22939;-78
2023/10/30 00:03:44;;;;;;;3.10;1.20;;;;;;;13.88;72.21;95842.08;108734;1271;22627;-78
2023/10/30 00:06:15;;;;;;;3.20;1.20;;;;;;;13.87;72.37;95847.29;108692;1271;25313;-78
2023/10/30 00:08:45;;;;;;;2.60;1.30;;;;;;;13.90;72.50;95853.64;108741;1271;22515;-78
2023/10/30 00:11:17;;;;;;;2.20;1.50;;;;;;;13.89;72.57;95853.98;108730;1271;22548;-78
2023/10/30 00:13:47;;;;;;;2.60;1.40;;;;;;;13.92;72.59;95855.73;108693;1268;22642;-78
2023/10/30 00:16:18;;;;;;;2.70;1.10;;;;;;;13.93;72.72;95855.36;108703;1272;22518;-78
2023/10/30 00:18:49;;;;;;;2.40;0.70;;;;;;;14.14;73.12;95858.52;108733;1272;22571;-78
2023/10/30 00:21:20;;;;;;;2.40;0.90;;;;;;;14.40;72.50;95854.30;108710;1272;22514;-78
2023/10/30 00:23:51;;;;;;;3.10;0.70;;;;;;;14.85;71.11;95851.36;108691;1268;22535;-78
2023/10/30 00:26:22;;;;;;;4.30;0.90;;;;;;;15.10;70.02;95842.30;108711;1272;22531;-78
2023/10/30 00:28:53;;;;;;;1.20;0.60;;;;;;;15.18;69.28;95842.91;108707;1268;22523;-78
2023/10/30 00:31:23;;;;;;;1.50;0.50;;;;;;;15.25;68.73;95852.55;108741;1260;24115;-78
2023/10/30 00:33:54;;;;;;;3.30;0.70;;;;;;;15.32;68.35;95858.83;108731;1266;22958;-78
2023/10/30 00:36:25;;;;;;;1.60;0.50;;;;;;;15.41;67.90;95852.45;108749;1272;25882;-78
2023/10/30 00:38:56;;;;;;;1.10;0.60;;;;;;;15.49;67.62;95867.77;108684;1271;22533;-78
2023/10/30 00:41:27;;;;;;;2.60;0.80;;;;;;;15.48;67.60;95858.86;108772;1272;22517;-78
2023/10/30 00:43:57;;;;;;;2.20;1.10;;;;;;;15.44;67.78;95865.90;108708;1272;22517;-78
2023/10/30 00:46:28;;;;;;;0.70;0.30;;;;;;;15.43;67.67;95856.96;108704;1272;22537;-78
2023/10/30 00:48:59;;;;;;;3.60;1.00;;;;;;;15.47;67.58;95862.80;108726;1265;22552;-78
2023/10/30 00:51:30;;;;;;;1.50;0.50;;;;;;;15.45;67.60;95873.12;108730;1272;22557;-78
2023/10/30 00:54:01;;;;;;;6.50;0.90;;;;;;;15.42;67.72;95869.52;108672;1265;32364;-77
2023/10/30 00:56:34;;;;;;;1.80;0.60;;;;;;;15.44;67.75;95863.30;108768;1272;22658;-78
2023/10/30 00:59:05;;;;;;;2.00;0.80;;;;;;;15.49;67.66;95863.02;108731;1266;22526;-78
2023/10/30 01:01:36;;;;;;;0.90;0.70;;;;;;;15.46;67.87;95864.45;108720;1272;23233;-78
2023/10/30 01:04:08;;;;;;;1.80;1.00;;;;;;;15.40;67.99;95866.76;108703;1272;22508;-77
2023/10/30 01:06:39;;;;;;;0.80;0.40;;;;;;;15.34;68.19;95875.16;108691;1272;22651;-78
2023/10/30 01:09:11;;;;;;;1.70;0.60;;;;;;;15.38;68.26;95870.34;108704;1272;22519;-78
2023/10/30 01:11:44;;;;;;;1.60;0.70;;;;;;;15.41;68.27;95870.08;108726;1268;22521;-78
2023/10/30 01:14:15;;;;;;;2.00;0.70;;;;;;;15.40;68.33;95874.46;108710;1272;23282;-78
2023/10/30 01:16:49;;;;;;;1.90;0.90;;;;;;;15.38;68.37;95870.17;108699;1272;22518;-78
2023/10/30 01:19:20;;;;;;;2.30;0.80;;;;;;;15.34;68.50;95870.80;108761;1272;22541;-78
2023/10/30 01:21:51;;;;;;;2.30;0.70;;;;;;;15.30;68.69;95867.63;108725;1268;22515;-78
2023/10/30 01:24:21;;;;;;;3.10;0.80;;;;;;;15.31;68.76;95867.39;108717;1272;24210;-78
2023/10/30 01:26:52;;;;;;;3.10;0.70;;;;;;;15.30;68.85;95864.32;108741;1249;22544;-78
2023/10/30 01:29:23;;;;;;;4.70;1.40;;;;;;;15.28;68.87;95865.54;108723;1268;24190;-78
2023/10/30 01:31:55;;;;;;;1.30;0.60;;;;;;;15.27;68.91;95862.15;108722;1266;23805;-78
2023/10/30 01:34:25;;;;;;;1.60;0.70;;;;;;;15.31;68.87;95860.16;108697;1272;22531;-78
2023/10/30 01:36:57;;;;;;;2.30;0.70;;;;;;;15.34;68.67;95857.98;108684;1256;22641;-78
2023/10/30 01:39:28;;;;;;;2.20;0.70;;;;;;;15.40;68.42;95854.10;108747;1272;25225;-78
2023/10/30 01:41:58;;;;;;;2.10;0.70;;;;;;;15.42;68.40;95853.41;108757;1268;22526;-78
2023/10/30 01:44:29;;;;;;;2.40;0.70;;;;;;;15.40;68.41;95842.95;108768;1271;22510;-78
2023/10/30 01:47:00;;;;;;;2.30;0.50;;;;;;;15.44;68.26;95841.80;108786;1271;22741;-78
2023/10/30 01:49:31;;;;;;;1.90;0.40;;;;;;;15.50;68.09;95855.73;108784;1265;25396;-78
2023/10/30 01:52:02;;;;;;;1.30;0.50;;;;;;;15.44;68.03;95850.95;108812;1268;22534;-78
2023/10/30 01:54:33;;;;;;;3.00;0.80;;;;;;;15.43;68.12;95862.65;108761;1271;22532;-78
2023/10/30 01:57:05;;;;;;;1.50;0.70;;;;;;;15.32;68.23;95864.41;108782;1271;22571;-78
2023/10/30 01:59:36;;;;;;;3.10;0.80;;;;;;;15.15;68.47;95862.40;108765;1268;22513;-78
2023/10/30 02:02:07;;;;;;;1.70;0.90;;;;;;;15.02;68.78;95862.77;108738;1271;22564;-78
2023/10/30 02:04:39;;;;;;;2.20;0.80;;;;;;;14.93;69.19;95861.67;108709;1271;26459;-78
2023/10/30 02:07:11;;;;;;;3.00;0.70;;;;;;;14.86;69.49;95852.32;108721;1271;22523;-78
2023/10/30 02:09:43;;;;;;;1.80;0.70;;;;;;;14.88;69.88;95857.52;108738;1271;22515;-78
2023/10/30 02:12:14;;;;;;;5.40;1.50;;;;;;;14.84;69.90;95856.89;108751;1271;26243;-78
2023/10/30 02:14:45;;;;;;;2.50;0.70;;;;;;;14.75;70.28;95867.20;108775;1271;25367;-78
2023/10/30 02:17:15;;;;;;;3.40;1.10;;;;;;;14.66;70.52;95866.56;108814;1271;22535;-78
2023/10/30 02:19:46;;;;;;;1.50;0.70;;;;;;;14.61;70.81;95872.01;108784;1271;22636;-78
2023/10/30 02:22:17;;;;;;;1.60;0.60;;;;;;;14.59;70.96;95859.56;108746;1268;22510;-78
2023/10/30 02:24:48;;;;;;;3.20;0.80;;;;;;;14.60;71.21;95864.95;108732;1271;23891;-78
2023/10/30 02:27:19;;;;;;;2.40;0.70;;;;;;;14.58;71.19;95869.75;108734;1253;24237;-78
2023/10/30 02:29:50;;;;;;;2.00;0.50;;;;;;;14.57;71.38;95864.54;108846;1271;22553;-78
2023/10/30 02:32:21;;;;;;;1.40;0.40;;;;;;;14.61;71.49;95864.31;108743;1271;22636;-78
2023/10/30 02:34:52;;;;;;;2.40;0.60;;;;;;;14.72;71.44;95863.67;108824;1271;24222;-78
2023/10/30 02:37:23;;;;;;;2.40;0.70;;;;;;;14.80;71.09;95869.33;108743;1271;22517;-78
2023/10/30 02:39:54;;;;;;;2.20;0.60;;;;;;;14.79;71.04;95867.95;108766;1268;22525;-78
2023/10/30 02:42:25;;;;;;;3.10;0.70;;;;;;;14.78;70.94;95863.77;108748;1267;22518;-78
2023/10/30 02:44:55;;;;;;;3.30;0.80;;;;;;;14.93;70.68;95865.75;108734;1271;22529;-78
2023/10/30 02:47:28;;;;;;;1.40;0.60;;;;;;;15.01;70.44;95869.17;108757;1266;22518;-78
2023/10/30 02:50:00;;;;;;;2.50;0.90;;;;;;;14.96;70.24;95871.70;108796;1271;22540;-78
2023/10/30 02:52:35;;;;;;;3.80;0.70;;;;;;;14.88;70.26;95875.13;108777;1271;22543;-78
2023/10/30 02:55:07;;;;;;;3.70;0.80;;;;;;;14.77;70.43;95883.70;108800;1271;22562;-78
2023/10/30 02:57:40;;;;;;;1.70;0.60;;;;;;;14.69;70.63;95888.17;108792;1271;22519;-78
2023/10/30 03:00:12;;;;;;;2.60;0.50;;;;;;;14.63;70.78;95889.39;108806;1271;23817;-78
2023/10/30 03:02:43;;;;;;;2.90;0.90;;;;;;;14.61;70.97;95884.02;108789;1271;22591;-78
2023/10/30 03:05:13;;;;;;;1.60;0.90;;;;;;;14.58;71.18;95884.77;108780;1271;22549;-77
2023/10/30 03:07:44;;;;;;;2.20;0.70;;;;;;;14.61;71.40;95880.92;108786;1271;25034;-78
2023/10/30 03:10:15;;;;;;;2.70;1.00;;;;;;;14.61;71.40;95875.75;108792;1268;22512;-78
2023/10/30 03:12:46;;;;;;;2.80;0.50;;;;;;;14.59;71.41;95873.69;108747;1271;22527;-78
2023/10/30 03:15:17;;;;;;;2.50;0.60;;;;;;;14.62;71.52;95879.50;108740;1268;22524;-78
2023/10/30 03:17:48;;;;;;;2.40;0.80;;;;;;;14.56;71.61;95871.59;108814;1257;22532;-78
2023/10/30 03:20:19;;;;;;;1.50;0.60;;;;;;;14.51;71.79;95874.02;108805;1271;22541;-78
2023/10/30 03:22:50;;;;;;;1.20;0.60;;;;;;;14.52;72.00;95870.30;108762;1271;24948;-78
2023/10/30 03:25:21;;;;;;;1.60;0.90;;;;;;;14.53;71.99;95867.76;108753;1269;25237;-78
2023/10/30 03:27:51;;;;;;;2.00;0.80;;;;;;;14.52;72.11;95864.91;108796;1269;22527;-78
2023/10/30 03:30:22;;;;;;;1.50;0.50;;;;;;;14.53;72.14;95871.40;108817;1266;22526;-78
2023/10/30 03:32:53;;;;;;;1.80;0.80;;;;;;;14.49;72.30;95867.73;108813;1271;22519;-78
2023/10/30 03:35:24;;;;;;;1.00;0.80;;;;;;;14.49;72.40;95873.19;108781;1268;22521;-78
2023/10/30 03:37:55;;;;;;;1.50;1.00;;;;;;;14.49;72.39;95875.70;108831;1271;25250;-78
2023/10/30 03:40:26;;;;;;;2.60;0.80;;;;;;;14.50;72.33;95880.25;108732;1264;22514;-78
2023/10/30 03:42:57;;;;;;;2.20;0.80;;;;;;;14.55;72.25;95878.16;108788;1268;22534;-78
2023/10/30 03:45:27;;;;;;;1.80;0.50;;;;;;;14.53;72.20;95880.03;108766;1271;22550;-78
2023/10/30 03:47:58;;;;;;;1.80;0.70;;;;;;;14.50;72.24;95876.75;108851;1271;22525;-78
2023/10/30 03:50:29;;;;;;;2.60;0.50;;;;;;;14.43;72.32;95868.31;108802;1265;22623;-78
2023/10/30 03:53:00;;;;;;;2.40;0.70;;;;;;;14.42;72.55;95868.09;108786;1271;22638;-78
2023/10/30 03:55:31;;;;;;;3.20;0.70;;;;;;;14.42;72.55;95874.33;108802;1271;22534;-78
2023/10/30 03:58:04;;;;;;;1.50;0.70;;;;;;;14.42;72.48;95871.60;108826;1271;22516;-78
2023/10/30 04:00:35;;;;;;;2.10;0.80;;;;;;;14.41;72.54;95868.47;108795;1268;25214;-78
2023/10/30 04:03:06;;;;;;;0.80;0.50;;;;;;;14.42;72.47;95869.69;108803;1271;22525;-78
2023/10/30 04:05:38;;;;;;;1.30;0.50;;;;;;;14.38;72.60;95864.53;108784;1266;23380;-78
2023/10/30 04:08:08;;;;;;;1.40;0.90;;;;;;;14.38;72.65;95862.00;108816;1268;23920;-78
2023/10/30 04:10:39;;;;;;;2.40;0.70;;;;;;;14.36;72.69;95858.90;108797;1268;22505;-78
2023/10/30 04:13:10;;;;;;;5.50;0.90;;;;;;;14.36;72.75;95849.64;108765;1268;22546;-78
2023/10/30 04:15:41;;;;;;;2.50;1.00;;;;;;;14.38;72.58;95849.60;108762;1264;28619;-78
2023/10/30 04:18:12;;;;;;;2.80;0.60;;;;;;;14.40;72.53;95851.41;108803;1269;22538;-78
2023/10/30 04:20:43;;;;;;;1.70;0.70;;;;;;;14.40;72.37;95847.52;108742;1266;22522;-78
2023/10/30 04:23:14;;;;;;;2.60;0.90;;;;;;;14.37;72.40;95858.92;108754;1271;22522;-78
2023/10/30 04:25:45;;;;;;;3.00;1.10;;;;;;;14.37;72.38;95861.66;108745;1269;22512;-78
2023/10/30 04:28:16;;;;;;;1.60;0.70;;;;;;;14.32;72.38;95874.55;108779;1257;22930;-78
2023/10/30 04:30:47;;;;;;;1.60;0.80;;;;;;;14.29;72.51;95873.89;108818;1271;22584;-78
2023/10/30 04:33:18;;;;;;;2.80;1.00;;;;;;;14.26;72.72;95877.14;108787;1269;23800;-78
2023/10/30 04:35:49;;;;;;;1.50;0.70;;;;;;;14.19;72.75;95882.66;108790;1271;22511;-78
2023/10/30 04:38:20;;;;;;;2.00;0.40;;;;;;;14.15;73.08;95863.42;108794;1265;24843;-78
2023/10/30 04:40:51;;;;;;;2.10;0.80;;;;;;;14.14;73.32;95878.16;108791;1268;22526;-78
2023/10/30 04:43:22;;;;;;;2.80;0.80;;;;;;;14.08;73.44;95882.95;108764;1268;23393;-78
2023/10/30 04:45:53;;;;;;;1.50;0.70;;;;;;;14.01;73.62;95876.79;108777;1271;22530;-78
2023/10/30 04:48:24;;;;;;;1.10;0.30;;;;;;;13.95;74.02;95880.08;108772;1269;22634;-78
2023/10/30 04:50:55;;;;;;;4.90;0.80;;;;;;;13.95;74.33;95883.02;108789;1271;22530;-78
2023/10/30 04:53:28;;;;;;;4.00;0.90;;;;;;;13.90;74.33;95878.30;108768;1271;22637;-78
2023/10/30 04:55:59;;;;;;;2.10;0.90;;;;;;;13.84;74.50;95880.21;108796;1271;23054;-78
2023/10/30 04:58:30;;;;;;;1.60;0.70;;;;;;;13.79;74.70;95863.86;108798;1271;22525;-78
2023/10/30 05:01:05;;;;;;;1.00;0.70;;;;;;;13.77;74.89;95856.14;108825;1271;22519;-78
2023/10/30 05:03:35;;;;;;;1.80;0.50;;;;;;;13.75;75.01;95855.27;108793;1271;22535;-78
2023/10/30 05:06:07;;;;;;;1.30;0.60;;;;;;;13.71;75.14;95861.46;108801;1271;22522;-78
2023/10/30 05:08:39;;;;;;;2.00;1.10;;;;;;;13.67;75.21;95860.00;108865;1266;22575;-78
2023/10/30 05:11:09;;;;;;;1.40;0.50;;;;;;;13.64;75.22;95858.94;108826;1271;22512;-78
2023/10/30 05:13:40;;;;;;;1.40;1.10;;;;;;;13.62;75.37;95864.09;108801;1271;22573;-78
2023/10/30 05:16:21;;;;;;;2.50;1.00;;;;;;;13.62;75.47;95868.22;108802;1271;24315;-78
2023/10/30 05:18:52;;;;;;;1.70;0.80;;;;;;;13.62;75.55;95873.12;108797;1271;25356;-78
2023/10/30 05:21:23;;;;;;;2.20;0.90;;;;;;;13.63;75.68;95869.56;108794;1271;22532;-78
2023/10/30 05:23:54;;;;;;;1.80;0.70;;;;;;;13.65;75.71;95869.42;108833;1271;22522;-78
2023/10/30 05:26:24;;;;;;;0.80;0.40;;;;;;;13.65;75.95;95872.35;108817;1254;22546;-78
2023/10/30 05:28:55;;;;;;;1.60;0.90;;;;;;;13.65;75.93;95866.59;108799;1260;22517;-78
2023/10/30 05:31:26;;;;;;;2.20;0.90;;;;;;;13.61;76.05;95870.48;108784;1271;22522;-78
2023/10/30 05:33:57;;;;;;;2.80;0.70;;;;;;;13.59;76.35;95881.11;108820;1271;25239;-78
2023/10/30 05:36:28;;;;;;;1.70;0.90;;;;;;;13.58;76.49;95882.50;108820;1271;26773;-78
2023/10/30 05:38:59;;;;;;;4.40;1.00;;;;;;;13.59;76.63;95889.58;108789;1269;22512;-77
2023/10/30 05:41:30;;;;;;;1.20;0.90;;;;;;;13.59;76.74;95890.60;108790;1271;22523;-78
2023/10/30 05:44:01;;;;;;;1.90;1.20;;;;;;;13.58;77.11;95895.06;108814;1271;22986;-77
2023/10/30 05:46:32;;;;;;;1.60;0.60;;;;;;;13.61;77.37;95898.53;108778;1271;22541;-78
2023/10/30 05:49:03;;;;;;;2.30;0.80;;;;;;;13.63;77.60;95905.39;108784;1271;22525;-77
2023/10/30 05:51:36;;;;;;;1.40;1.00;;;;;;;13.63;77.45;95900.77;108835;1271;22521;-77
2023/10/30 05:54:08;;;;;;;4.60;1.30;;;;;;;13.66;77.60;95902.33;108782;1271;22535;-77
2023/10/30 05:56:39;;;;;;;2.10;0.90;;;;;;;13.70;77.63;95913.16;108781;1271;22548;-77
2023/10/30 05:59:10;;;;;;;1.60;0.90;;;;;;;13.81;77.65;95918.52;108795;1271;22538;-77
2023/10/30 06:01:42;;;;;;;3.10;1.10;;;;;;;13.90;77.35;95912.88;108719;1271;22538;-78
2023/10/30 06:04:13;;;;;;;4.50;1.30;;;;;;;13.93;77.08;95925.91;108790;1268;22516;-78
2023/10/30 06:06:44;;;;;;;3.00;1.40;;;;;;;13.95;77.03;95925.34;108687;1271;25578;-78
2023/10/30 06:09:15;;;;;;;3.80;1.10;;;;;;;14.01;76.99;95927.05;108747;1269;22627;-78
2023/10/30 06:11:50;;;;;;;2.10;1.10;;;;;;;14.38;77.21;95936.50;108779;1272;22531;-78
2023/10/30 06:14:21;;;;;;;3.30;1.10;;;;;;;14.90;76.59;95931.60;108718;1270;22622;-78
2023/10/30 06:16:53;;;;;;;2.80;0.90;;;;;;;15.13;75.44;95937.38;108726;1263;22519;-78
2023/10/30 06:19:25;;;;;;;2.80;1.30;;;;;;;15.29;74.98;95929.68;108556;1271;233005;-78
2023/10/30 06:21:56;;;;;;;3.80;1.30;;;;;;;15.59;74.50;95931.40;108746;1271;22534;-78
2023/10/30 06:24:27;;;;;;;2.50;1.30;;;;;;;15.76;73.04;95938.45;108702;1271;25409;-78
2023/10/30 06:26:57;;;;;;;4.00;1.00;;;;;;;15.94;72.24;95951.93;108787;1271;22518;-78
2023/10/30 06:29:29;;;;;;;2.60;1.00;;;;;;;16.19;71.63;95951.73;108777;1271;22520;-78
2023/10/30 06:32:00;;;;;;;2.40;1.00;;;;;;;16.59;70.80;95950.70;108724;1271;22529;-78
2023/10/30 06:34:33;;;;;;;4.30;0.90;;;;;;;16.75;69.43;95942.75;108719;1268;22536;-78
2023/10/30 06:37:04;;;;;;;1.90;1.00;;;;;;;16.83;68.67;95938.96;108775;1272;22624;-78
2023/10/30 06:39:35;;;;;;;2.10;1.00;;;;;;;16.79;67.65;95946.17;108714;1264;22840;-78
2023/10/30 06:42:07;;;;;;;2.50;0.90;;;;;;;16.83;68.13;95954.05;108742;1271;22538;-78
2023/10/30 06:44:39;;;;;;;1.80;0.90;;;;;;;16.88;67.09;95953.52;108713;1264;22566;-78
2023/10/30 06:47:10;;;;;;;2.00;1.00;;;;;;;16.71;66.88;95958.06;108727;1271;22637;-78
2023/10/30 06:49:40;;;;;;;2.60;1.10;;;;;;;16.49;66.82;95957.24;108719;1264;22526;-78
2023/10/30 06:52:12;;;;;;;2.60;1.00;;;;;;;16.15;67.20;95965.89;108683;1271;22534;-78
2023/10/30 06:54:42;;;;;;;2.10;1.20;;;;;;;15.88;67.68;95976.01;108695;1271;22576;-78
2023/10/30 06:57:13;;;;;;;2.50;1.20;;;;;;;15.62;68.47;95974.58;108735;1271;22658;-78
2023/10/30 06:59:44;;;;;;;4.10;1.10;;;;;;;15.51;69.15;95970.77;108740;1271;22545;-78
2023/10/30 07:02:15;;;;;;;3.30;1.10;;;;;;;15.42;69.65;95970.16;108738;1271;22527;-78
2023/10/30 07:04:47;;;;;;;2.40;0.90;;;;;;;15.24;70.15;95981.21;108728;1269;25767;-77
2023/10/30 07:07:18;;;;;;;1.70;0.90;;;;;;;15.14;70.68;95977.70;108725;1271;24272;-78
2023/10/30 07:09:50;;;;;;;3.00;1.30;;;;;;;15.03;71.12;95982.75;108738;1271;22532;-78
2023/10/30 07:12:21;;;;;;;3.90;1.30;;;;;;;14.94;71.62;95974.39;108795;1271;22529;-78
2023/10/30 07:14:52;;;;;;;2.00;0.90;;;;;;;14.89;72.07;95973.19;108740;1264;31026;-78
2023/10/30 07:17:23;;;;;;;3.90;1.20;;;;;;;14.91;72.31;95976.64;108734;1271;22521;-78
2023/10/30 07:19:54;;;;;;;2.30;1.20;;;;;;;14.92;72.57;95980.17;108709;1271;22520;-78
2023/10/30 07:22:26;;;;;;;2.20;0.70;;;;;;;14.90;72.80;95984.91;108719;1271;24769;-78
2023/10/30 07:24:57;;;;;;;2.60;1.20;;;;;;;14.82;73.13;95985.14;108738;1271;25343;-77
2023/10/30 07:27:28;;;;;;;1.60;0.90;;;;;;;14.79;73.37;95975.52;108782;1271;22521;-78
2023/10/30 07:30:01;;;;;;;3.30;1.20;;;;;;;14.81;73.58;95968.86;108765;1271;22629;-78
2023/10/30 07:32:32;;;;;;;3.70;1.00;;;;;;;14.89;73.64;95968.48;108732;1271;22567;-78
2023/10/30 07:35:04;;;;;;;1.70;0.70;;;;;;;14.95;73.68;95971.78;108741;1271;22517;-78
2023/10/30 07:37:36;;;;;;;4.50;1.40;;;;;;;14.96;73.34;95966.47;108770;1271;22542;-78
2023/10/30 07:40:09;;;;;;;4.40;1.10;;;;;;;14.97;73.45;95976.95;108728;1271;22566;-78
2023/10/30 07:42:40;;;;;;;2.50;0.90;;;;;;;15.00;73.43;95978.60;108747;1265;22701;-78
2023/10/30 07:45:12;;;;;;;4.60;1.90;;;;;;;14.97;73.41;95976.89;108743;1271;25730;-78
2023/10/30 07:47:44;;;;;;;2.30;1.50;;;;;;;14.99;73.62;95973.30;108744;1271;22533;-78
2023/10/30 07:50:15;;;;;;;6.60;2.60;;;;;;;15.07;73.48;95970.80;108774;1271;22533;-78
2023/10/30 07:52:46;;;;;;;4.10;2.00;;;;;;;15.22;73.38;95972.30;108747;1271;22774;-78
2023/10/30 07:55:17;;;;;;;5.60;2.40;;;;;;;15.28;73.18;95980.84;108693;1264;22941;-78
2023/10/30 07:57:48;;;;;;;6.60;2.90;;;;;;;15.38;72.99;95980.69;108730;1271;22776;-78
2023/10/30 08:00:21;;;;;;;6.50;3.80;;;;;;;15.52;72.77;95976.92;108768;1269;26433;-78
2023/10/30 08:02:52;;;;;;;7.80;4.50;;;;;;;15.61;72.34;95976.84;108759;1270;24323;-78
2023/10/30 08:05:23;;;;;;;5.80;2.90;;;;;;;15.72;72.11;95980.85;108725;1271;22546;-78
2023/10/30 08:07:54;;;;;;;7.70;4.70;;;;;;;15.89;71.94;95985.91;108698;1270;22545;-78
2023/10/30 08:10:26;;;;;;;9.20;4.00;;;;;;;16.20;71.74;95989.34;108773;1264;22541;-78
2023/10/30 08:12:57;;;;;;;7.30;4.20;;;;;;;16.41;70.83;95985.44;108783;1271;22562;-78
2023/10/30 08:15:28;;;;;;;7.60;4.20;;;;;;;16.56;70.26;95973.63;108689;1271;22628;-78
2023/10/30 08:17:59;;;;;;;7.30;3.50;;;;;;;16.60;69.65;95971.39;108757;1270;22525;-78
2023/10/30 08:20:31;;;;;;;10.40;3.20;;;;;;;16.58;69.41;95965.20;108759;1269;24226;-78
2023/10/30 08:23:02;;;;;;;7.80;3.70;;;;;;;16.59;69.17;95971.11;108720;1271;22538;-78
2023/10/30 08:25:33;;;;;;;6.90;3.90;;;;;;;16.73;69.46;95973.98;108686;1251;22545;-78
2023/10/30 08:28:04;;;;;;;6.80;3.20;;;;;;;16.97;69.32;95972.45;108825;1269;22641;-78
2023/10/30 08:30:35;;;;;;;6.40;3.50;;;;;;;17.10;68.37;95965.99;108863;1270;22521;-78
2023/10/30 08:33:06;;;;;;;5.50;3.80;;;;;;;17.25;68.89;95963.99;108869;1271;22522;-78
2023/10/30 08:35:37;;;;;;;7.20;3.60;;;;;;;17.67;69.01;95961.60;108730;1271;24707;-78
2023/10/30 08:38:08;;;;;;;7.20;3.20;;;;;;;17.85;68.06;95964.63;108794;1271;25403;-78
2023/10/30 08:40:39;;;;;;;6.00;3.00;;;;;;;17.94;67.63;95961.29;108739;1266;22525;-78
2023/10/30 08:43:10;;;;;;;3.80;2.20;;;;;;;17.96;67.27;95968.53;108771;1271;22515;-78
2023/10/30 08:45:41;;;;;;;4.50;2.30;;;;;;;17.93;66.87;95980.48;108749;1271;24378;-78
2023/10/30 08:48:13;;;;;;;3.10;2.00;;;;;;;17.82;66.45;95984.91;108751;1271;22600;-78
2023/10/30 08:50:43;;;;;;;5.40;2.20;;;;;;;17.73;66.73;95984.52;108797;1271;22517;-78
2023/10/30 08:53:15;;;;;;;3.60;2.00;;;;;;;17.76;66.57;95984.98;108821;1270;22518;-78
2023/10/30 08:55:46;;;;;;;5.70;1.40;;;;;;;17.73;66.25;95989.34;108767;1271;27716;-78
2023/10/30 08:58:16;;;;;;;3.10;1.80;;;;;;;17.62;66.07;95990.62;108763;1272;22520;-78
2023/10/30 09:00:47;;;;;;;3.90;1.30;;;;;;;17.63;66.61;95993.70;108771;1270;22523;-78
2023/10/30 09:03:19;;;;;;;3.40;1.30;;;;;;;17.77;66.71;95992.21;108780;1270;25723;-78
2023/10/30 09:05:50;;;;;;;3.50;1.40;;;;;;;17.90;66.59;95988.74;108740;1271;22630;-78
2023/10/30 09:08:21;;;;;;;3.70;1.70;;;;;;;17.88;66.11;95982.62;108726;1271;22547;-78
2023/10/30 09:10:52;;;;;;;3.90;1.40;;;;;;;17.72;65.27;95985.47;108783;1271;22575;-79
2023/10/30 09:13:23;;;;;;;2.20;1.00;;;;;;;17.55;65.58;95992.07;108745;1264;24216;-78
2023/10/30 09:15:54;;;;;;;3.40;1.90;;;;;;;17.49;66.09;95989.14;108652;1273;24575;-79
2023/10/30 09:18:25;;;;;;;5.70;2.20;;;;;;;17.50;66.51;95988.02;108628;1269;22548;-78
2023/10/30 09:20:56;;;;;;;4.10;2.20;;;;;;;17.58;66.59;95990.61;108638;1266;26195;-79
2023/10/30 09:23:27;;;;;;;4.60;1.60;;;;;;;17.68;66.73;95991.16;108586;1266;25212;-79
2023/10/30 09:25:58;;;;;;;3.70;1.70;;;;;;;17.87;66.78;95988.65;108633;1273;22536;-78
2023/10/30 09:28:29;;;;;;;6.00;1.90;;;;;;;18.13;66.60;95988.02;108641;1267;22598;-78
2023/10/30 09:30:59;;;;;;;3.20;1.80;;;;;;;18.42;66.75;95984.35;108613;1273;22983;-78
2023/10/30 09:33:30;;;;;;;4.60;2.20;;;;;;;18.59;65.57;95991.02;108685;1270;25314;-79
2023/10/30 09:36:01;;;;;;;3.80;1.60;;;;;;;18.74;65.07;95998.94;108574;1273;22533;-79
2023/10/30 09:38:32;;;;;;;3.90;2.20;;;;;;;18.78;64.72;95995.12;108616;1267;25391;-79
2023/10/30 09:41:06;;;;;;;4.90;2.10;;;;;;;18.77;64.57;95994.78;108625;1273;22534;-79
2023/10/30 09:43:38;;;;;;;2.30;1.50;;;;;;;18.84;64.80;95992.98;108626;1273;22623;-79
2023/10/30 09:46:11;;;;;;;3.70;1.80;;;;;;;18.95;64.71;95999.23;108617;1270;22535;-79
2023/10/30 09:48:42;;;;;;;3.30;1.70;;;;;;;19.10;64.53;95991.22;108629;1273;22521;-79
2023/10/30 09:51:13;;;;;;;6.00;1.80;;;;;;;19.23;64.36;95983.56;108643;1273;26434;-79
2023/10/30 09:53:46;;;;;;;2.40;1.20;;;;;;;19.28;63.88;95986.44;108676;1269;23223;-79
2023/10/30 09:56:18;;;;;;;3.90;1.40;;;;;;;19.20;63.76;95992.23;108675;1273;24215;-79
2023/10/30 09:58:53;;;;;;;3.80;1.50;;;;;;;19.07;63.41;95988.93;108635;1267;22542;-79
2023/10/30 10:01:24;;;;;;;5.80;1.50;;;;;;;18.86;63.42;95991.19;108643;1273;22640;-79
2023/10/30 10:03:55;;;;;;;3.20;1.30;;;;;;;18.72;63.24;95984.69;108619;1268;22538;-79
2023/10/30 10:06:26;;;;;;;1.90;1.10;;;;;;;18.60;63.45;95991.89;108610;1270;24350;-78
2023/10/30 10:08:57;;;;;;;4.40;1.40;;;;;;;18.65;64.03;95988.36;108650;1273;22545;-79
2023/10/30 10:11:35;;;;;;;4.10;1.30;;;;;;;18.70;63.86;95984.10;108616;1267;22546;-79
2023/10/30 10:14:06;;;;;;;4.20;1.30;;;;;;;18.70;63.84;95981.33;108696;1271;25126;-78
2023/10/30 10:16:38;;;;;;;4.20;1.50;;;;;;;18.70;63.80;95985.77;108762;1264;22517;-78
2023/10/30 10:19:24;;;;;;;3.20;1.30;;;;;;;18.76;63.53;95985.71;108777;1271;22537;-78
2023/10/30 10:21:57;;;;;;;1.90;1.10;;;;;;;18.82;63.08;95981.55;108747;1271;22627;-79
2023/10/30 10:24:32;;;;;;;3.10;1.20;;;;;;;18.84;62.51;95981.91;108730;1271;24240;-78
2023/10/30 10:27:04;;;;;;;4.80;1.20;;;;;;;18.82;62.35;95979.65;108759;1271;22540;-78
2023/10/30 10:29:35;;;;;;;2.90;0.90;;;;;;;18.82;62.27;95985.17;108817;1271;22638;-78
2023/10/30 10:32:08;;;;;;;2.30;1.00;;;;;;;18.76;61.41;95984.27;108800;1271;22551;-79
2023/10/30 10:34:38;;;;;;;1.60;0.70;;;;;;;18.73;60.88;95981.58;108819;1264;22545;-78
2023/10/30 10:37:18;;;;;;;0.80;0.30;;;;;;;18.70;60.55;95980.41;108814;1271;22530;-79
2023/10/30 10:39:50;;;;;;;1.80;0.80;;;;;;;18.67;59.81;95977.11;108794;1271;25419;-79
2023/10/30 10:42:23;;;;;;;2.40;0.70;;;;;;;18.67;59.54;95977.90;108766;1271;24367;-79
2023/10/30 10:44:56;;;;;;;2.60;0.90;;;;;;;18.65;59.57;95985.27;108757;1264;25316;-78
2023/10/30 10:47:27;;;;;;;1.60;0.70;;;;;;;18.65;59.13;95991.42;108845;1256;25287;-79
2023/10/30 10:49:58;;;;;;;1.70;0.60;;;;;;;18.67;58.75;95990.17;108788;1269;22682;-79
2023/10/30 10:52:30;;;;;;;2.50;0.60;;;;;;;18.60;57.99;96007.62;108809;1271;22584;-79
2023/10/30 10:55:05;;;;;;;1.30;0.40;;;;;;;18.57;58.02;96004.15;108767;1271;24295;-79
2023/10/30 10:57:45;;;;;;;0.80;0.50;;;;;;;18.49;57.97;96005.47;108762;1271;22522;-79
2023/10/30 11:00:17;;;;;;;1.50;0.50;;;;;;;18.52;58.42;96002.40;108762;1271;24273;-79
2023/10/30 11:02:52;;;;;;;3.10;0.90;;;;;;;18.62;58.61;95998.23;108794;1271;22527;-79
2023/10/30 11:05:29;;;;;;;2.90;0.60;;;;;;;18.80;58.57;95994.41;108740;1268;22527;-79
2023/10/30 11:08:07;;;;;;;2.10;0.80;;;;;;;18.97;57.97;95985.85;108690;1271;23052;-79
2023/10/30 11:10:44;;;;;;;3.70;1.10;;;;;;;19.17;58.34;95978.17;108777;1265;22607;-79
2023/10/30 11:13:24;;;;;;;2.90;0.90;;;;;;;19.34;58.44;95984.89;108773;1264;22512;-79
2023/10/30 11:16:01;;;;;;;3.30;0.70;;;;;;;19.40;58.27;95972.03;108778;1271;22532;-79
2023/10/30 11:18:43;;;;;;;3.20;0.80;;;;;;;19.40;58.18;95982.85;108783;1264;22526;-79
2023/10/30 11:21:16;;;;;;;2.20;1.00;;;;;;;19.45;58.53;95982.81;108760;1268;22532;-79
2023/10/30 11:23:55;;;;;;;1.40;0.40;;;;;;;19.60;58.21;95981.71;108844;1271;22542;-79
2023/10/30 11:26:39;;;;;;;;;;;;;;;19.55;55.76;95983.13;108826;1271;22599;-79
2023/10/30 11:29:11;;;;;;;2.00;0.80;;;;;;;19.47;55.64;95975.73;108832;1271;22518;-79
2023/10/30 11:32:05;;;;;;;1.70;0.70;;;;;;;19.50;55.76;95979.33;108775;1264;22540;-79
2023/10/30 11:34:38;;;;;;;1.80;0.60;;;;;;;19.58;55.59;95975.61;108765;1267;25256;-79
2023/10/30 11:37:12;;;;;;;1.40;0.70;;;;;;;19.34;55.22;95984.33;108799;1271;22517;-79
2023/10/30 11:39:45;;;;;;;3.70;0.70;;;;;;;19.29;56.02;95987.75;108802;1250;22525;-79
2023/10/30 11:42:40;;;;;;;1.80;0.80;;;;;;;19.20;55.67;95982.34;108784;1264;22573;-79
2023/10/30 11:45:25;;;;;;;2.60;1.10;;;;;;;19.15;56.16;95986.88;108737;1264;25563;-79